sensor_id;sensor_type;location;lat;lon;timestamp;temperature;humidity
29403;DHT22;16382;59.942;30.472;2022-12-29T00:01:41;1.10;99.90
29403;DHT22;16382;59.942;30.472;2022-12-29T00:04:12;1.10;99.90
29403;DHT22;16382;59.942;30.472;2022-12-29T00:06:41;1.10;99.90
29403;DHT22;16382;59.942;30.472;2022-12-29T00:09:09;1.10;99.90
29403;DHT22;16382;59.942;30.472;2022-12-29T00:11:39;1.20;99.90
29403;DHT22;16382;59.942;30.472;2022-12-29T00:14:08;1.30;99.90
29403;DHT22;16382;59.942;30.472;2022-12-29T00:16:54;1.30;99.90
29403;DHT22;16382;59.942;30.472;2022-12-29T00:19:21;1.40;99.90
29403;DHT22;16382;59.942;30.472;2022-12-29T00:22:08;1.40;99.90
29403;DHT22;16382;59.942;30.472;2022-12-29T00:24:53;1.40;99.90
29403;DHT22;16382;59.942;30.472;2022-12-29T00:27:40;1.30;99.90
29403;DHT22;16382;59.942;30.472;2022-12-29T00:30:25;1.20;99.90
29403;DHT22;16382;59.942;30.472;2022-12-29T00:33:11;1.20;99.90
29403;DHT22;16382;59.942;30.472;2022-12-29T00:35:57;1.20;99.90
29403;DHT22;16382;59.942;30.472;2022-12-29T00:38:29;1.10;99.90
29403;DHT22;16382;59.942;30.472;2022-12-29T00:41:16;1.10;99.90
29403;DHT22;16382;59.942;30.472;2022-12-29T00:44:02;1.10;99.90
29403;DHT22;16382;59.942;30.472;2022-12-29T00:46:33;1.10;99.90
29403;DHT22;16382;59.942;30.472;2022-12-29T00:49:02;1.20;99.90
29403;DHT22;16382;59.942;30.472;2022-12-29T00:51:48;1.20;99.90
29403;DHT22;16382;59.942;30.472;2022-12-29T00:54:16;1.30;99.90
29403;DHT22;16382;59.942;30.472;2022-12-29T00:56:46;1.30;99.90
29403;DHT22;16382;59.942;30.472;2022-12-29T00:59:18;1.40;99.90
29403;DHT22;16382;59.942;30.472;2022-12-29T01:01:47;1.40;99.90
29403;DHT22;16382;59.942;30.472;2022-12-29T01:04:14;1.30;99.90
29403;DHT22;16382;59.942;30.472;2022-12-29T01:06:43;1.30;99.90
29403;DHT22;16382;59.942;30.472;2022-12-29T01:09:11;1.30;99.90
29403;DHT22;16382;59.942;30.472;2022-12-29T01:11:58;1.30;99.90
29403;DHT22;16382;59.942;30.472;2022-12-29T01:14:27;1.30;99.90
29403;DHT22;16382;59.942;30.472;2022-12-29T01:16:57;1.30;99.90
29403;DHT22;16382;59.942;30.472;2022-12-29T01:19:24;1.30;99.90
29403;DHT22;16382;59.942;30.472;2022-12-29T01:21:56;1.20;99.90
29403;DHT22;16382;59.942;30.472;2022-12-29T01:24:23;1.20;99.90
29403;DHT22;16382;59.942;30.472;2022-12-29T01:26:52;1.20;99.90
29403;DHT22;16382;59.942;30.472;2022-12-29T01:29:20;1.10;99.90
29403;DHT22;16382;59.942;30.472;2022-12-29T01:31:49;1.10;99.90
29403;DHT22;16382;59.942;30.472;2022-12-29T01:34:17;1.10;99.90
29403;DHT22;16382;59.942;30.472;2022-12-29T01:36:44;1.10;99.90
29403;DHT22;16382;59.942;30.472;2022-12-29T01:39:12;1.20;99.90
29403;DHT22;16382;59.942;30.472;2022-12-29T01:41:40;1.20;99.90
29403;DHT22;16382;59.942;30.472;2022-12-29T01:47:25;1.30;99.90
29403;DHT22;16382;59.942;30.472;2022-12-29T01:49:58;1.30;99.90
29403;DHT22;16382;59.942;30.472;2022-12-29T01:52:31;1.20;99.90
29403;DHT22;16382;59.942;30.472;2022-12-29T01:55:02;1.20;99.90
29403;DHT22;16382;59.942;30.472;2022-12-29T01:57:32;1.20;99.90
29403;DHT22;16382;59.942;30.472;2022-12-29T02:00:05;1.20;99.90
29403;DHT22;16382;59.942;30.472;2022-12-29T02:02:48;1.20;99.90
29403;DHT22;16382;59.942;30.472;2022-12-29T02:05:26;1.20;99.90
29403;DHT22;16382;59.942;30.472;2022-12-29T02:08:00;1.20;99.90
29403;DHT22;16382;59.942;30.472;2022-12-29T02:10:30;1.20;99.90
29403;DHT22;16382;59.942;30.472;2022-12-29T02:12:59;1.20;99.90
29403;DHT22;16382;59.942;30.472;2022-12-29T02:15:34;1.30;99.90
29403;DHT22;16382;59.942;30.472;2022-12-29T02:18:16;1.30;99.90
29403;DHT22;16382;59.942;30.472;2022-12-29T02:21:35;1.40;99.90
29403;DHT22;16382;59.942;30.472;2022-12-29T02:27:40;1.40;99.90
29403;DHT22;16382;59.942;30.472;2022-12-29T02:33:36;1.40;99.90
29403;DHT22;16382;59.942;30.472;2022-12-29T02:36:18;1.50;99.90
29403;DHT22;16382;59.942;30.472;2022-12-29T02:38:57;1.50;99.90
29403;DHT22;16382;59.942;30.472;2022-12-29T02:41:32;1.50;99.90
29403;DHT22;16382;59.942;30.472;2022-12-29T02:44:06;1.50;99.90
29403;DHT22;16382;59.942;30.472;2022-12-29T02:46:46;1.50;99.90
29403;DHT22;16382;59.942;30.472;2022-12-29T02:49:20;1.40;99.90
29403;DHT22;16382;59.942;30.472;2022-12-29T02:51:57;1.40;99.90
29403;DHT22;16382;59.942;30.472;2022-12-29T02:54:28;1.40;99.90
29403;DHT22;16382;59.942;30.472;2022-12-29T02:57:13;1.40;99.90
29403;DHT22;16382;59.942;30.472;2022-12-29T02:59:43;1.40;99.90
29403;DHT22;16382;59.942;30.472;2022-12-29T03:02:30;1.40;99.90
29403;DHT22;16382;59.942;30.472;2022-12-29T03:05:20;1.50;99.90
29403;DHT22;16382;59.942;30.472;2022-12-29T03:07:56;1.50;99.90
29403;DHT22;16382;59.942;30.472;2022-12-29T03:10:37;1.40;99.90
29403;DHT22;16382;59.942;30.472;2022-12-29T03:13:15;1.30;99.90
29403;DHT22;16382;59.942;30.472;2022-12-29T03:16:12;1.30;99.90
29403;DHT22;16382;59.942;30.472;2022-12-29T03:18:50;1.30;99.90
29403;DHT22;16382;59.942;30.472;2022-12-29T03:21:27;1.30;99.90
29403;DHT22;16382;59.942;30.472;2022-12-29T03:24:20;1.40;99.90
29403;DHT22;16382;59.942;30.472;2022-12-29T03:26:51;1.40;99.90
29403;DHT22;16382;59.942;30.472;2022-12-29T03:29:20;1.40;99.90
29403;DHT22;16382;59.942;30.472;2022-12-29T03:31:49;1.40;99.90
29403;DHT22;16382;59.942;30.472;2022-12-29T03:34:21;1.40;99.90
29403;DHT22;16382;59.942;30.472;2022-12-29T03:36:53;1.30;99.90
29403;DHT22;16382;59.942;30.472;2022-12-29T03:39:22;1.30;99.90
29403;DHT22;16382;59.942;30.472;2022-12-29T03:41:54;1.30;99.90
29403;DHT22;16382;59.942;30.472;2022-12-29T03:44:32;1.30;99.90
29403;DHT22;16382;59.942;30.472;2022-12-29T03:47:02;1.20;99.90
29403;DHT22;16382;59.942;30.472;2022-12-29T03:49:31;1.20;99.90
29403;DHT22;16382;59.942;30.472;2022-12-29T03:51:59;1.20;99.90
29403;DHT22;16382;59.942;30.472;2022-12-29T03:54:28;1.20;99.90
29403;DHT22;16382;59.942;30.472;2022-12-29T03:56:56;1.20;99.90
29403;DHT22;16382;59.942;30.472;2022-12-29T03:59:36;1.20;99.90
29403;DHT22;16382;59.942;30.472;2022-12-29T04:02:03;1.10;99.90
29403;DHT22;16382;59.942;30.472;2022-12-29T04:04:32;1.10;99.90
29403;DHT22;16382;59.942;30.472;2022-12-29T04:07:00;1.00;99.90
29403;DHT22;16382;59.942;30.472;2022-12-29T04:09:27;0.90;99.90
29403;DHT22;16382;59.942;30.472;2022-12-29T04:11:57;0.80;99.90
29403;DHT22;16382;59.942;30.472;2022-12-29T04:14:24;0.80;99.90
29403;DHT22;16382;59.942;30.472;2022-12-29T04:16:53;0.80;99.90
29403;DHT22;16382;59.942;30.472;2022-12-29T04:19:20;0.80;99.90
29403;DHT22;16382;59.942;30.472;2022-12-29T04:21:50;0.80;99.90
29403;DHT22;16382;59.942;30.472;2022-12-29T04:24:18;0.80;99.90
29403;DHT22;16382;59.942;30.472;2022-12-29T04:26:48;0.80;99.90
29403;DHT22;16382;59.942;30.472;2022-12-29T04:29:42;0.80;99.90
29403;DHT22;16382;59.942;30.472;2022-12-29T04:32:30;0.80;99.90
29403;DHT22;16382;59.942;30.472;2022-12-29T04:34:57;0.90;99.90
29403;DHT22;16382;59.942;30.472;2022-12-29T04:37:26;0.80;99.90
29403;DHT22;16382;59.942;30.472;2022-12-29T04:39:54;0.90;99.90
29403;DHT22;16382;59.942;30.472;2022-12-29T04:42:22;0.80;99.90
29403;DHT22;16382;59.942;30.472;2022-12-29T04:44:50;0.80;99.90
29403;DHT22;16382;59.942;30.472;2022-12-29T04:47:33;0.80;99.90
29403;DHT22;16382;59.942;30.472;2022-12-29T04:50:27;0.90;99.90
29403;DHT22;16382;59.942;30.472;2022-12-29T04:53:06;0.90;99.90
29403;DHT22;16382;59.942;30.472;2022-12-29T04:55:35;0.90;99.90
29403;DHT22;16382;59.942;30.472;2022-12-29T04:58:03;0.90;99.90
29403;DHT22;16382;59.942;30.472;2022-12-29T05:00:32;0.90;99.90
29403;DHT22;16382;59.942;30.472;2022-12-29T05:03:00;0.90;99.90
29403;DHT22;16382;59.942;30.472;2022-12-29T05:05:29;0.80;99.90
29403;DHT22;16382;59.942;30.472;2022-12-29T05:07:58;0.80;99.90
29403;DHT22;16382;59.942;30.472;2022-12-29T05:10:28;0.90;99.90
29403;DHT22;16382;59.942;30.472;2022-12-29T05:12:59;1.00;99.90
29403;DHT22;16382;59.942;30.472;2022-12-29T05:15:27;1.00;99.90
29403;DHT22;16382;59.942;30.472;2022-12-29T05:18:17;0.90;99.90
29403;DHT22;16382;59.942;30.472;2022-12-29T05:20:45;0.90;99.90
29403;DHT22;16382;59.942;30.472;2022-12-29T05:23:14;0.90;99.90
29403;DHT22;16382;59.942;30.472;2022-12-29T05:25:44;0.90;99.90
29403;DHT22;16382;59.942;30.472;2022-12-29T05:28:30;0.90;99.90
29403;DHT22;16382;59.942;30.472;2022-12-29T05:31:04;0.90;99.90
29403;DHT22;16382;59.942;30.472;2022-12-29T05:33:32;1.00;99.90
29403;DHT22;16382;59.942;30.472;2022-12-29T05:36:03;1.00;99.90
29403;DHT22;16382;59.942;30.472;2022-12-29T05:38:31;1.00;99.90
29403;DHT22;16382;59.942;30.472;2022-12-29T05:41:01;1.00;99.90
29403;DHT22;16382;59.942;30.472;2022-12-29T05:43:47;0.90;99.90
29403;DHT22;16382;59.942;30.472;2022-12-29T05:46:30;0.90;99.90
29403;DHT22;16382;59.942;30.472;2022-12-29T05:49:07;0.80;99.90
29403;DHT22;16382;59.942;30.472;2022-12-29T05:55:11;0.80;99.90
29403;DHT22;16382;59.942;30.472;2022-12-29T05:57:43;0.80;99.90
29403;DHT22;16382;59.942;30.472;2022-12-29T06:00:14;0.80;99.90
29403;DHT22;16382;59.942;30.472;2022-12-29T06:02:43;0.70;99.90
29403;DHT22;16382;59.942;30.472;2022-12-29T06:05:12;0.70;99.90
29403;DHT22;16382;59.942;30.472;2022-12-29T06:07:40;0.70;99.90
29403;DHT22;16382;59.942;30.472;2022-12-29T06:10:09;0.70;99.90
29403;DHT22;16382;59.942;30.472;2022-12-29T06:12:48;0.70;99.90
29403;DHT22;16382;59.942;30.472;2022-12-29T06:15:17;0.70;99.90
29403;DHT22;16382;59.942;30.472;2022-12-29T06:17:47;0.70;99.90
29403;DHT22;16382;59.942;30.472;2022-12-29T06:20:15;0.70;99.90
29403;DHT22;16382;59.942;30.472;2022-12-29T06:22:43;0.60;99.90
29403;DHT22;16382;59.942;30.472;2022-12-29T06:25:12;0.60;99.90
29403;DHT22;16382;59.942;30.472;2022-12-29T06:27:41;0.60;99.90
29403;DHT22;16382;59.942;30.472;2022-12-29T06:30:12;0.60;99.90
29403;DHT22;16382;59.942;30.472;2022-12-29T06:32:40;0.50;99.90
29403;DHT22;16382;59.942;30.472;2022-12-29T06:35:11;0.50;99.90
29403;DHT22;16382;59.942;30.472;2022-12-29T06:37:45;0.50;99.90
29403;DHT22;16382;59.942;30.472;2022-12-29T06:40:13;0.40;99.90
29403;DHT22;16382;59.942;30.472;2022-12-29T06:42:59;0.40;99.90
29403;DHT22;16382;59.942;30.472;2022-12-29T06:45:47;0.50;99.90
29403;DHT22;16382;59.942;30.472;2022-12-29T06:48:15;0.50;99.90
29403;DHT22;16382;59.942;30.472;2022-12-29T06:50:42;0.50;99.90
29403;DHT22;16382;59.942;30.472;2022-12-29T06:53:10;0.50;99.90
29403;DHT22;16382;59.942;30.472;2022-12-29T06:55:37;0.50;99.90
29403;DHT22;16382;59.942;30.472;2022-12-29T06:58:05;0.50;99.90
29403;DHT22;16382;59.942;30.472;2022-12-29T07:00:33;0.40;99.90
29403;DHT22;16382;59.942;30.472;2022-12-29T07:03:02;0.50;99.90
29403;DHT22;16382;59.942;30.472;2022-12-29T07:05:30;0.50;99.90
29403;DHT22;16382;59.942;30.472;2022-12-29T07:07:58;0.50;99.90
29403;DHT22;16382;59.942;30.472;2022-12-29T07:10:26;0.50;99.90
29403;DHT22;16382;59.942;30.472;2022-12-29T07:12:54;0.40;99.90
29403;DHT22;16382;59.942;30.472;2022-12-29T07:15:21;0.50;99.90
29403;DHT22;16382;59.942;30.472;2022-12-29T07:17:49;0.50;99.90
29403;DHT22;16382;59.942;30.472;2022-12-29T07:20:19;0.50;99.90
29403;DHT22;16382;59.942;30.472;2022-12-29T07:22:46;0.50;99.90
29403;DHT22;16382;59.942;30.472;2022-12-29T07:25:14;0.50;99.90
29403;DHT22;16382;59.942;30.472;2022-12-29T07:27:42;0.50;99.90
29403;DHT22;16382;59.942;30.472;2022-12-29T07:30:11;0.50;99.90
29403;DHT22;16382;59.942;30.472;2022-12-29T07:32:39;0.60;99.90
29403;DHT22;16382;59.942;30.472;2022-12-29T07:35:08;0.60;99.90
29403;DHT22;16382;59.942;30.472;2022-12-29T07:37:37;0.60;99.90
29403;DHT22;16382;59.942;30.472;2022-12-29T07:40:06;0.60;99.90
29403;DHT22;16382;59.942;30.472;2022-12-29T07:42:38;0.50;99.90
29403;DHT22;16382;59.942;30.472;2022-12-29T07:45:09;0.50;99.90
29403;DHT22;16382;59.942;30.472;2022-12-29T07:48:12;0.50;99.90
29403;DHT22;16382;59.942;30.472;2022-12-29T07:50:40;0.50;99.90
29403;DHT22;16382;59.942;30.472;2022-12-29T07:53:09;0.50;99.90
29403;DHT22;16382;59.942;30.472;2022-12-29T07:55:39;0.40;99.90
29403;DHT22;16382;59.942;30.472;2022-12-29T07:58:11;0.40;99.90
29403;DHT22;16382;59.942;30.472;2022-12-29T08:00:39;0.40;99.90
29403;DHT22;16382;59.942;30.472;2022-12-29T08:03:06;0.40;99.90
29403;DHT22;16382;59.942;30.472;2022-12-29T08:05:34;0.40;99.90
29403;DHT22;16382;59.942;30.472;2022-12-29T08:08:03;0.40;99.90
29403;DHT22;16382;59.942;30.472;2022-12-29T08:10:32;0.40;99.90
29403;DHT22;16382;59.942;30.472;2022-12-29T08:13:00;0.40;99.90
29403;DHT22;16382;59.942;30.472;2022-12-29T08:15:28;0.30;99.90
29403;DHT22;16382;59.942;30.472;2022-12-29T08:17:55;0.30;99.90
29403;DHT22;16382;59.942;30.472;2022-12-29T08:20:23;0.30;99.90
29403;DHT22;16382;59.942;30.472;2022-12-29T08:22:51;0.20;99.90
29403;DHT22;16382;59.942;30.472;2022-12-29T08:25:19;0.20;99.90
29403;DHT22;16382;59.942;30.472;2022-12-29T08:27:48;0.20;99.90
29403;DHT22;16382;59.942;30.472;2022-12-29T08:30:16;0.10;99.90
29403;DHT22;16382;59.942;30.472;2022-12-29T08:32:43;0.10;99.90
29403;DHT22;16382;59.942;30.472;2022-12-29T08:35:11;0.10;99.90
29403;DHT22;16382;59.942;30.472;2022-12-29T08:37:39;0.10;99.90
29403;DHT22;16382;59.942;30.472;2022-12-29T08:40:07;0.10;99.90
29403;DHT22;16382;59.942;30.472;2022-12-29T08:42:36;0.20;99.90
29403;DHT22;16382;59.942;30.472;2022-12-29T08:45:06;0.20;99.90
29403;DHT22;16382;59.942;30.472;2022-12-29T08:47:35;0.30;99.90
29403;DHT22;16382;59.942;30.472;2022-12-29T08:50:03;0.40;99.90
29403;DHT22;16382;59.942;30.472;2022-12-29T08:52:31;0.40;99.90
29403;DHT22;16382;59.942;30.472;2022-12-29T08:54:58;0.40;99.90
29403;DHT22;16382;59.942;30.472;2022-12-29T08:57:26;0.40;99.90
29403;DHT22;16382;59.942;30.472;2022-12-29T09:00:16;0.50;99.90
29403;DHT22;16382;59.942;30.472;2022-12-29T09:02:44;0.50;99.90
29403;DHT22;16382;59.942;30.472;2022-12-29T09:05:12;0.60;99.90
29403;DHT22;16382;59.942;30.472;2022-12-29T09:07:40;0.60;99.90
29403;DHT22;16382;59.942;30.472;2022-12-29T09:10:08;0.60;99.90
29403;DHT22;16382;59.942;30.472;2022-12-29T09:12:35;0.50;99.90
29403;DHT22;16382;59.942;30.472;2022-12-29T09:15:05;0.50;99.90
29403;DHT22;16382;59.942;30.472;2022-12-29T09:17:35;0.50;99.90
29403;DHT22;16382;59.942;30.472;2022-12-29T09:20:10;0.50;99.90
29403;DHT22;16382;59.942;30.472;2022-12-29T09:22:38;0.50;99.90
29403;DHT22;16382;59.942;30.472;2022-12-29T09:25:07;0.40;99.90
29403;DHT22;16382;59.942;30.472;2022-12-29T09:27:35;0.40;99.90
29403;DHT22;16382;59.942;30.472;2022-12-29T09:30:04;0.30;99.90
29403;DHT22;16382;59.942;30.472;2022-12-29T09:32:33;0.40;99.90
29403;DHT22;16382;59.942;30.472;2022-12-29T09:35:02;0.40;99.90
29403;DHT22;16382;59.942;30.472;2022-12-29T09:37:30;0.40;99.90
29403;DHT22;16382;59.942;30.472;2022-12-29T09:39:58;0.50;99.90
29403;DHT22;16382;59.942;30.472;2022-12-29T09:42:27;0.50;99.90
29403;DHT22;16382;59.942;30.472;2022-12-29T09:45:07;0.40;99.90
29403;DHT22;16382;59.942;30.472;2022-12-29T09:47:41;0.30;99.90
29403;DHT22;16382;59.942;30.472;2022-12-29T09:50:22;0.20;99.90
29403;DHT22;16382;59.942;30.472;2022-12-29T09:52:55;0.20;99.90
29403;DHT22;16382;59.942;30.472;2022-12-29T09:55:34;0.10;99.90
29403;DHT22;16382;59.942;30.472;2022-12-29T09:58:10;0.10;99.90
29403;DHT22;16382;59.942;30.472;2022-12-29T10:00:48;0.10;99.90
29403;DHT22;16382;59.942;30.472;2022-12-29T10:03:24;0.00;99.90
29403;DHT22;16382;59.942;30.472;2022-12-29T10:06:00;0.00;99.90
29403;DHT22;16382;59.942;30.472;2022-12-29T10:08:39;0.00;99.90
29403;DHT22;16382;59.942;30.472;2022-12-29T10:11:19;0.00;99.90
29403;DHT22;16382;59.942;30.472;2022-12-29T10:14:11;0.10;99.90
29403;DHT22;16382;59.942;30.472;2022-12-29T10:16:51;0.00;99.90
29403;DHT22;16382;59.942;30.472;2022-12-29T10:19:47;-0.10;99.90
29403;DHT22;16382;59.942;30.472;2022-12-29T10:22:36;0.00;99.90
29403;DHT22;16382;59.942;30.472;2022-12-29T10:25:15;0.00;99.90
29403;DHT22;16382;59.942;30.472;2022-12-29T10:27:47;0.00;99.90
29403;DHT22;16382;59.942;30.472;2022-12-29T10:30:16;0.00;99.90
29403;DHT22;16382;59.942;30.472;2022-12-29T10:32:49;-0.10;99.90
29403;DHT22;16382;59.942;30.472;2022-12-29T10:35:22;-0.10;99.90
29403;DHT22;16382;59.942;30.472;2022-12-29T10:37:56;0.00;99.90
29403;DHT22;16382;59.942;30.472;2022-12-29T10:40:31;-0.10;99.90
29403;DHT22;16382;59.942;30.472;2022-12-29T10:43:12;-0.10;99.90
29403;DHT22;16382;59.942;30.472;2022-12-29T10:45:49;-0.10;99.90
29403;DHT22;16382;59.942;30.472;2022-12-29T10:48:26;-0.10;99.90
29403;DHT22;16382;59.942;30.472;2022-12-29T10:50:58;-0.10;99.90
29403;DHT22;16382;59.942;30.472;2022-12-29T10:53:34;-0.10;99.90
29403;DHT22;16382;59.942;30.472;2022-12-29T10:56:13;0.00;99.90
29403;DHT22;16382;59.942;30.472;2022-12-29T10:58:47;0.00;99.90
29403;DHT22;16382;59.942;30.472;2022-12-29T11:01:16;0.00;99.90
29403;DHT22;16382;59.942;30.472;2022-12-29T11:03:59;-0.20;99.90
29403;DHT22;16382;59.942;30.472;2022-12-29T11:06:32;-0.10;99.90
29403;DHT22;16382;59.942;30.472;2022-12-29T11:09:11;-0.20;99.90
29403;DHT22;16382;59.942;30.472;2022-12-29T11:11:43;-0.30;99.90
29403;DHT22;16382;59.942;30.472;2022-12-29T11:14:19;-0.30;99.90
29403;DHT22;16382;59.942;30.472;2022-12-29T11:16:57;-0.30;99.90
29403;DHT22;16382;59.942;30.472;2022-12-29T11:19:26;-0.30;99.90
29403;DHT22;16382;59.942;30.472;2022-12-29T11:22:13;-0.30;99.90
29403;DHT22;16382;59.942;30.472;2022-12-29T11:24:47;-0.40;99.90
29403;DHT22;16382;59.942;30.472;2022-12-29T11:27:21;-0.60;99.90
29403;DHT22;16382;59.942;30.472;2022-12-29T11:29:52;-0.50;99.90
29403;DHT22;16382;59.942;30.472;2022-12-29T11:32:22;-0.50;99.90
29403;DHT22;16382;59.942;30.472;2022-12-29T11:34:53;-0.50;99.90
29403;DHT22;16382;59.942;30.472;2022-12-29T11:37:28;-0.50;99.90
29403;DHT22;16382;59.942;30.472;2022-12-29T11:40:02;-0.50;99.90
29403;DHT22;16382;59.942;30.472;2022-12-29T11:42:36;-0.50;99.90
29403;DHT22;16382;59.942;30.472;2022-12-29T11:45:12;-0.50;99.90
29403;DHT22;16382;59.942;30.472;2022-12-29T11:47:46;-0.60;99.90
29403;DHT22;16382;59.942;30.472;2022-12-29T11:50:19;-0.60;99.90
29403;DHT22;16382;59.942;30.472;2022-12-29T11:53:00;-0.50;99.90
29403;DHT22;16382;59.942;30.472;2022-12-29T11:55:34;-0.40;99.90
29403;DHT22;16382;59.942;30.472;2022-12-29T11:58:04;-0.40;99.90
29403;DHT22;16382;59.942;30.472;2022-12-29T12:00:36;-0.40;99.90
29403;DHT22;16382;59.942;30.472;2022-12-29T12:03:12;-0.40;99.90
29403;DHT22;16382;59.942;30.472;2022-12-29T12:05:46;-0.40;99.90
29403;DHT22;16382;59.942;30.472;2022-12-29T12:08:32;-0.40;99.90
29403;DHT22;16382;59.942;30.472;2022-12-29T12:11:07;-0.40;99.90
29403;DHT22;16382;59.942;30.472;2022-12-29T12:13:42;-0.30;99.90
29403;DHT22;16382;59.942;30.472;2022-12-29T12:16:20;-0.50;99.90
29403;DHT22;16382;59.942;30.472;2022-12-29T12:18:58;-0.50;99.90
29403;DHT22;16382;59.942;30.472;2022-12-29T12:21:38;-0.50;99.90
29403;DHT22;16382;59.942;30.472;2022-12-29T12:24:35;-0.50;99.90
29403;DHT22;16382;59.942;30.472;2022-12-29T12:27:12;-0.50;99.90
29403;DHT22;16382;59.942;30.472;2022-12-29T12:29:47;-0.70;99.90
29403;DHT22;16382;59.942;30.472;2022-12-29T12:32:23;-0.70;99.90
29403;DHT22;16382;59.942;30.472;2022-12-29T12:34:55;-0.70;99.90
29403;DHT22;16382;59.942;30.472;2022-12-29T12:37:48;-0.80;99.90
29403;DHT22;16382;59.942;30.472;2022-12-29T12:40:37;-0.90;99.90
29403;DHT22;16382;59.942;30.472;2022-12-29T12:43:37;-1.00;99.90
29403;DHT22;16382;59.942;30.472;2022-12-29T12:53:02;-1.00;99.90
29403;DHT22;16382;59.942;30.472;2022-12-29T12:56:00;-1.00;99.90
29403;DHT22;16382;59.942;30.472;2022-12-29T12:58:47;-0.90;99.90
29403;DHT22;16382;59.942;30.472;2022-12-29T13:01:29;-0.80;99.90
29403;DHT22;16382;59.942;30.472;2022-12-29T13:04:25;-0.90;99.90
29403;DHT22;16382;59.942;30.472;2022-12-29T13:07:14;-0.80;99.90
29403;DHT22;16382;59.942;30.472;2022-12-29T13:10:02;-0.90;99.90
29403;DHT22;16382;59.942;30.472;2022-12-29T13:12:52;-0.90;99.90
29403;DHT22;16382;59.942;30.472;2022-12-29T13:15:39;-0.90;99.90
29403;DHT22;16382;59.942;30.472;2022-12-29T13:18:20;-1.00;99.90
29403;DHT22;16382;59.942;30.472;2022-12-29T13:20:56;-1.00;99.90
29403;DHT22;16382;59.942;30.472;2022-12-29T13:23:37;-0.90;99.90
29403;DHT22;16382;59.942;30.472;2022-12-29T13:26:14;-0.90;99.90
29403;DHT22;16382;59.942;30.472;2022-12-29T13:28:52;-0.90;99.90
29403;DHT22;16382;59.942;30.472;2022-12-29T13:31:30;-0.90;99.90
29403;DHT22;16382;59.942;30.472;2022-12-29T13:34:12;-0.90;99.90
29403;DHT22;16382;59.942;30.472;2022-12-29T13:36:44;-1.00;99.90
29403;DHT22;16382;59.942;30.472;2022-12-29T13:39:18;-1.00;99.90
29403;DHT22;16382;59.942;30.472;2022-12-29T13:41:49;-1.00;99.90
29403;DHT22;16382;59.942;30.472;2022-12-29T13:44:23;-1.00;99.90
29403;DHT22;16382;59.942;30.472;2022-12-29T13:46:56;-1.00;99.90
29403;DHT22;16382;59.942;30.472;2022-12-29T13:49:27;-1.00;99.90
29403;DHT22;16382;59.942;30.472;2022-12-29T13:52:03;-1.00;99.90
29403;DHT22;16382;59.942;30.472;2022-12-29T13:54:39;-0.90;99.90
29403;DHT22;16382;59.942;30.472;2022-12-29T13:57:14;-0.90;99.90
29403;DHT22;16382;59.942;30.472;2022-12-29T13:59:51;-1.00;99.90
29403;DHT22;16382;59.942;30.472;2022-12-29T14:02:30;-1.00;99.90
29403;DHT22;16382;59.942;30.472;2022-12-29T14:05:02;-1.00;99.90
29403;DHT22;16382;59.942;30.472;2022-12-29T14:07:36;-1.10;99.90
29403;DHT22;16382;59.942;30.472;2022-12-29T14:10:05;-1.00;99.90
29403;DHT22;16382;59.942;30.472;2022-12-29T14:12:36;-1.00;99.90
29403;DHT22;16382;59.942;30.472;2022-12-29T14:15:20;-1.00;99.90
29403;DHT22;16382;59.942;30.472;2022-12-29T14:18:03;-0.90;99.90
29403;DHT22;16382;59.942;30.472;2022-12-29T14:20:33;-0.90;99.90
29403;DHT22;16382;59.942;30.472;2022-12-29T14:23:14;-0.90;99.90
29403;DHT22;16382;59.942;30.472;2022-12-29T14:26:09;-0.90;99.90
29403;DHT22;16382;59.942;30.472;2022-12-29T14:28:40;-0.80;99.90
29403;DHT22;16382;59.942;30.472;2022-12-29T14:31:34;-0.80;99.90
29403;DHT22;16382;59.942;30.472;2022-12-29T14:34:28;-0.80;99.90
29403;DHT22;16382;59.942;30.472;2022-12-29T14:36:58;-0.80;99.90
29403;DHT22;16382;59.942;30.472;2022-12-29T14:39:35;-0.90;99.90
29403;DHT22;16382;59.942;30.472;2022-12-29T14:42:06;-0.90;99.90
29403;DHT22;16382;59.942;30.472;2022-12-29T14:44:47;-0.90;99.90
29403;DHT22;16382;59.942;30.472;2022-12-29T14:47:20;-1.00;99.90
29403;DHT22;16382;59.942;30.472;2022-12-29T14:49:49;-1.10;99.90
29403;DHT22;16382;59.942;30.472;2022-12-29T14:52:20;-1.10;99.90
29403;DHT22;16382;59.942;30.472;2022-12-29T14:54:51;-1.10;99.90
29403;DHT22;16382;59.942;30.472;2022-12-29T14:57:33;-1.10;99.90
29403;DHT22;16382;59.942;30.472;2022-12-29T15:00:17;-1.20;99.90
29403;DHT22;16382;59.942;30.472;2022-12-29T15:02:50;-1.20;99.90
29403;DHT22;16382;59.942;30.472;2022-12-29T15:05:34;-1.20;99.90
29403;DHT22;16382;59.942;30.472;2022-12-29T15:08:04;-1.20;99.90
29403;DHT22;16382;59.942;30.472;2022-12-29T15:10:39;-1.20;99.90
29403;DHT22;16382;59.942;30.472;2022-12-29T15:13:16;-1.30;99.90
29403;DHT22;16382;59.942;30.472;2022-12-29T15:15:45;-1.30;99.90
29403;DHT22;16382;59.942;30.472;2022-12-29T15:18:21;-1.30;99.90
29403;DHT22;16382;59.942;30.472;2022-12-29T15:20:52;-1.30;99.90
29403;DHT22;16382;59.942;30.472;2022-12-29T15:23:22;-1.40;99.90
29403;DHT22;16382;59.942;30.472;2022-12-29T15:25:54;-1.30;99.90
29403;DHT22;16382;59.942;30.472;2022-12-29T15:28:24;-1.30;99.90
29403;DHT22;16382;59.942;30.472;2022-12-29T15:30:54;-1.30;99.90
29403;DHT22;16382;59.942;30.472;2022-12-29T15:33:26;-1.30;99.90
29403;DHT22;16382;59.942;30.472;2022-12-29T15:35:55;-1.40;99.90
29403;DHT22;16382;59.942;30.472;2022-12-29T15:38:27;-1.40;99.90
29403;DHT22;16382;59.942;30.472;2022-12-29T15:40:58;-1.40;99.90
29403;DHT22;16382;59.942;30.472;2022-12-29T15:43:36;-1.40;99.90
29403;DHT22;16382;59.942;30.472;2022-12-29T15:46:10;-1.40;99.90
29403;DHT22;16382;59.942;30.472;2022-12-29T15:48:40;-1.30;99.90
29403;DHT22;16382;59.942;30.472;2022-12-29T15:51:17;-1.30;99.90
29403;DHT22;16382;59.942;30.472;2022-12-29T15:53:48;-1.30;99.90
29403;DHT22;16382;59.942;30.472;2022-12-29T15:56:18;-1.30;99.90
29403;DHT22;16382;59.942;30.472;2022-12-29T15:58:46;-1.30;99.90
29403;DHT22;16382;59.942;30.472;2022-12-29T16:01:23;-1.30;99.90
29403;DHT22;16382;59.942;30.472;2022-12-29T16:03:53;-1.30;99.90
29403;DHT22;16382;59.942;30.472;2022-12-29T16:06:30;-1.40;99.90
29403;DHT22;16382;59.942;30.472;2022-12-29T16:09:02;-1.30;99.90
29403;DHT22;16382;59.942;30.472;2022-12-29T16:11:33;-1.40;99.90
29403;DHT22;16382;59.942;30.472;2022-12-29T16:14:06;-1.40;99.90
29403;DHT22;16382;59.942;30.472;2022-12-29T16:16:37;-1.40;99.90
29403;DHT22;16382;59.942;30.472;2022-12-29T16:19:13;-1.40;99.90
29403;DHT22;16382;59.942;30.472;2022-12-29T16:21:42;-1.40;99.90
29403;DHT22;16382;59.942;30.472;2022-12-29T16:24:14;-1.40;99.90
29403;DHT22;16382;59.942;30.472;2022-12-29T16:26:48;-1.40;99.90
29403;DHT22;16382;59.942;30.472;2022-12-29T16:29:17;-1.40;99.90